Time;durP1;ratioP1;P1;durP2;ratioP2;P2;SDS_P1;SDS_P2;PMS_P1;PMS_P2;Temp;Humidity;BMP_temperature;BMP_pressure;BME280_temperature;BME280_humidity;BME280_pressure;Samples;Min_cycle;Max_cycle;Signal;HPM_P1;HPM_P2
2021/07/19 00:00:34;;;;;;;14.55;3.42;;;;;;;16.63;60.70;101972.09;10280082;28;20045;-71
2021/07/19 00:05:31;;;;;;;16.15;4.13;;;;;;;16.70;60.49;101965.28;10272755;28;20411;-68
2021/07/19 00:10:28;;;;;;;15.18;3.42;;;;;;;16.77;60.27;101960.06;10259125;28;20053;-71
2021/07/19 00:15:26;;;;;;;15.15;3.80;;;;;;;16.72;60.29;101963.00;10271329;28;20894;-71
2021/07/19 00:20:24;;;;;;;15.27;3.47;;;;;;;16.50;61.07;101964.84;10270090;28;20045;-69
2021/07/19 00:25:21;;;;;;;11.52;3.30;;;;;;;16.55;61.17;101959.16;10281381;28;20124;-67
2021/07/19 00:30:17;;;;;;;13.00;3.13;;;;;;;16.47;61.42;101962.72;10280621;28;20087;-67
2021/07/19 00:35:14;;;;;;;16.63;3.63;;;;;;;16.50;61.23;101961.25;10272647;28;20049;-67
2021/07/19 00:40:20;;;;;;;12.90;3.10;;;;;;;16.55;61.22;101953.63;10282029;28;20052;-69
2021/07/19 00:45:20;;;;;;;12.77;3.63;;;;;;;16.50;61.65;101956.56;10275828;28;20079;-67
2021/07/19 00:50:17;;;;;;;16.70;3.92;;;;;;;16.54;61.80;101952.00;10274418;28;20083;-68
2021/07/19 00:55:16;;;;;;;11.57;3.35;;;;;;;16.56;61.88;101955.25;10282165;28;20144;-68
2021/07/19 01:00:14;;;;;;;11.18;3.85;;;;;;;16.61;61.69;101963.34;10277330;28;20106;-70
2021/07/19 01:05:11;;;;;;;11.68;3.22;;;;;;;16.55;61.41;101967.44;11253287;23;20049;-70
2021/07/19 01:10:16;;;;;;;11.63;3.05;;;;;;;16.56;61.76;101955.25;10233176;28;20048;-68
2021/07/19 01:15:13;;;;;;;11.40;3.05;;;;;;;16.60;61.98;101956.22;10243299;28;20557;-68
2021/07/19 01:20:11;;;;;;;19.88;4.43;;;;;;;16.59;61.07;101960.13;10236987;28;20155;-67
2021/07/19 01:25:42;;;;;;;9.68;3.22;;;;;;;16.50;61.25;101967.63;10234757;28;20049;-69
2021/07/19 01:30:41;;;;;;;12.10;3.25;;;;;;;16.56;61.08;101966.28;10254822;28;20052;-67
2021/07/19 01:35:44;;;;;;;14.30;3.10;;;;;;;16.60;60.84;101956.22;10237883;28;20786;-67
2021/07/19 01:40:41;;;;;;;10.40;2.83;;;;;;;16.50;61.33;101967.63;10238213;28;20097;-67
2021/07/19 01:45:38;;;;;;;15.35;3.53;;;;;;;16.48;60.32;101964.38;10230839;28;20045;-69
2021/07/19 01:50:37;;;;;;;13.32;3.30;;;;;;;16.56;60.44;101959.97;10240182;28;20041;-68
2021/07/19 01:55:33;;;;;;;12.55;3.53;;;;;;;16.65;60.40;101952.47;10218786;28;20388;-67
2021/07/19 02:00:31;;;;;;;9.52;3.10;;;;;;;16.63;59.83;101958.31;10235634;28;20045;-67
2021/07/19 02:05:28;;;;;;;14.55;3.00;;;;;;;16.63;59.88;101961.06;10227087;28;20049;-67
2021/07/19 02:10:25;;;;;;;14.70;3.55;;;;;;;16.58;59.87;101946.63;10237182;28;20612;-70
2021/07/19 02:15:22;;;;;;;10.68;2.88;;;;;;;16.54;60.03;101956.72;10249827;28;20121;-68
2021/07/19 02:20:19;;;;;;;12.13;3.22;;;;;;;16.51;59.97;101951.84;10233931;28;20073;-68
2021/07/19 02:25:19;;;;;;;10.80;2.97;;;;;;;16.55;60.09;101956.38;10228545;28;20506;-68
2021/07/19 02:30:21;;;;;;;13.55;3.30;;;;;;;16.49;60.43;101962.41;10232035;28;20045;-69
2021/07/19 02:35:18;;;;;;;15.68;3.45;;;;;;;16.56;60.81;101952.47;10235673;28;20041;-69
2021/07/19 02:40:17;;;;;;;13.93;3.20;;;;;;;16.54;60.46;101963.03;10229813;28;20087;-67
2021/07/19 02:45:15;;;;;;;12.63;3.42;;;;;;;16.58;60.99;101964.00;10235969;28;20069;-68
2021/07/19 02:50:34;;;;;;;12.35;3.83;;;;;;;16.57;60.75;101962.41;10247994;28;20056;-68
2021/07/19 02:55:32;;;;;;;12.52;3.35;;;;;;;16.56;60.24;101959.97;10242700;28;20080;-68
2021/07/19 03:00:29;;;;;;;9.95;3.35;;;;;;;16.51;60.12;101947.13;10233047;28;22077;-70
2021/07/19 03:05:32;;;;;;;12.65;3.65;;;;;;;16.53;59.28;101939.34;10221534;28;20407;-68
2021/07/19 03:10:29;;;;;;;11.43;3.65;;;;;;;16.52;59.06;101946.00;10236902;28;20045;-70
2021/07/19 03:15:28;;;;;;;16.45;4.18;;;;;;;16.54;58.95;101952.00;10259263;28;20487;-68
2021/07/19 03:20:25;;;;;;;13.10;3.42;;;;;;;16.45;58.54;101955.91;10234530;28;20121;-69
2021/07/19 03:25:26;;;;;;;12.05;3.92;;;;;;;16.46;58.59;101950.06;10235072;28;20516;-67
2021/07/19 03:30:24;;;;;;;11.13;3.47;;;;;;;16.47;58.60;101957.22;10239084;28;20056;-67
2021/07/19 03:35:25;;;;;;;11.65;3.97;;;;;;;16.48;58.65;101958.03;10249164;28;20078;-70
2021/07/19 03:40:23;;;;;;;7.65;3.65;;;;;;;16.51;58.96;101963.69;10240041;28;20756;-67
2021/07/19 03:45:22;;;;;;;12.52;4.40;;;;;;;16.51;58.91;101962.91;10222957;28;20396;-68
2021/07/19 03:50:20;;;;;;;12.38;4.57;;;;;;;16.52;59.08;101970.03;10246065;28;20080;-69
2021/07/19 03:55:17;;;;;;;11.68;4.93;;;;;;;16.48;59.34;101958.84;10255237;28;20044;-68
2021/07/19 04:00:15;;;;;;;12.50;4.18;;;;;;;16.49;59.63;101954.13;10243674;28;20053;-67
2021/07/19 04:05:16;;;;;;;12.07;4.90;;;;;;;16.51;59.46;101958.19;10238042;28;20540;-68
2021/07/19 04:10:15;;;;;;;11.38;4.47;;;;;;;16.49;59.62;101954.94;10241861;28;20107;-68
2021/07/19 04:15:13;;;;;;;10.48;4.22;;;;;;;16.55;58.81;101959.16;10243382;28;20619;-67
2021/07/19 04:20:12;;;;;;;12.95;4.95;;;;;;;16.53;58.62;101950.38;10242601;28;20447;-68
2021/07/19 04:25:10;;;;;;;8.80;4.47;;;;;;;16.57;56.87;101936.72;10253953;28;20085;-68
2021/07/19 04:30:08;;;;;;;9.88;4.53;;;;;;;16.59;56.16;101951.84;10241243;28;20076;-68
2021/07/19 04:35:12;;;;;;;9.55;4.30;;;;;;;16.55;56.19;101952.81;10242953;28;20045;-70
2021/07/19 04:40:10;;;;;;;9.57;4.63;;;;;;;16.55;55.88;101948.13;10239825;28;20053;-67
2021/07/19 04:45:08;;;;;;;8.10;4.07;;;;;;;16.63;55.81;101960.25;10210195;28;20083;-68
2021/07/19 04:50:05;;;;;;;12.30;4.80;;;;;;;16.56;56.28;101959.97;10224295;28;20049;-70
2021/07/19 04:55:03;;;;;;;11.13;4.45;;;;;;;16.62;56.94;101970.50;10241485;28;20041;-73
2021/07/19 05:00:02;;;;;;;9.18;4.28;;;;;;;16.52;56.97;101970.84;10232137;28;20543;-67
2021/07/19 05:05:00;;;;;;;13.07;5.05;;;;;;;16.51;57.14;101974.75;10227772;28;20056;-70
2021/07/19 05:10:00;;;;;;;8.57;4.20;;;;;;;16.59;57.54;101982.22;10241364;28;20061;-68
2021/07/19 05:14:59;;;;;;;11.55;4.63;;;;;;;16.71;57.53;101983.47;10252175;28;20084;-70
2021/07/19 05:19:56;;;;;;;11.55;4.78;;;;;;;16.65;57.74;101995.84;10225589;28;20037;-67
2021/07/19 05:24:57;;;;;;;10.65;4.72;;;;;;;16.69;58.05;101991.28;10227976;28;20692;-67
2021/07/19 05:29:54;;;;;;;11.85;5.35;;;;;;;16.62;57.65;101984.31;10238563;28;20044;-68
2021/07/19 05:34:50;;;;;;;10.38;4.75;;;;;;;16.67;57.84;101982.53;10249860;28;20037;-68
2021/07/19 05:39:51;;;;;;;9.30;4.53;;;;;;;16.72;58.29;101979.56;10233127;28;20045;-69
2021/07/19 05:44:47;;;;;;;8.10;4.35;;;;;;;16.86;58.41;101985.75;10222727;28;20133;-67
2021/07/19 05:49:44;;;;;;;7.00;4.60;;;;;;;16.86;57.24;101980.22;10250941;28;20555;-68
2021/07/19 05:54:40;;;;;;;10.23;4.32;;;;;;;16.84;57.29;101996.31;10233697;28;20125;-70
2021/07/19 05:59:36;;;;;;;12.07;5.28;;;;;;;16.86;57.76;101999.53;10239185;28;20525;-68
2021/07/19 06:04:33;;;;;;;11.35;5.28;;;;;;;16.89;57.83;101996.13;10232675;28;20123;-67
2021/07/19 06:09:29;;;;;;;14.95;5.10;;;;;;;16.81;57.52;101999.72;10222658;28;20053;-68
2021/07/19 06:14:26;;;;;;;11.15;5.18;;;;;;;16.90;57.22;101999.72;10250358;28;20041;-68
2021/07/19 06:19:22;;;;;;;10.35;4.75;;;;;;;16.88;57.15;102008.31;10234915;28;20119;-67
2021/07/19 06:24:19;;;;;;;12.25;5.10;;;;;;;16.90;56.42;102003.28;10237229;28;20042;-69
2021/07/19 06:29:15;;;;;;;9.25;4.80;;;;;;;17.01;56.30;102004.53;10235695;28;20049;-70
2021/07/19 06:34:12;;;;;;;15.10;5.40;;;;;;;17.09;56.37;102011.19;10261300;28;20042;-68
2021/07/19 06:39:09;;;;;;;11.90;5.20;;;;;;;17.16;55.69;102016.19;10230286;28;20061;-68
2021/07/19 06:44:05;;;;;;;12.00;5.60;;;;;;;17.18;55.31;102013.91;10236231;28;20070;-68
2021/07/19 06:49:03;;;;;;;7.30;4.68;;;;;;;17.20;54.32;102011.63;10249063;28;20735;-68
2021/07/19 06:53:59;;;;;;;13.48;5.15;;;;;;;17.31;55.49;102012.84;10246774;28;20073;-67
2021/07/19 06:58:56;;;;;;;12.50;5.43;;;;;;;17.33;53.93;102016.09;10253952;28;20052;-67
2021/07/19 07:03:52;;;;;;;10.10;4.43;;;;;;;17.45;53.58;102016.22;10228403;28;20410;-69
2021/07/19 07:08:58;;;;;;;10.77;4.60;;;;;;;17.58;53.64;102024.59;10241957;28;20451;-67
2021/07/19 07:13:55;;;;;;;11.18;4.88;;;;;;;17.64;52.98;102028.81;10231145;28;20102;-68
2021/07/19 07:18:53;;;;;;;9.95;4.88;;;;;;;17.73;52.65;102029.56;10241292;28;20134;-68
2021/07/19 07:23:50;;;;;;;7.85;4.50;;;;;;;17.78;52.06;102021.06;10233501;28;20076;-68
2021/07/19 07:28:47;;;;;;;7.10;3.95;;;;;;;17.78;52.89;102026.59;10242935;28;20095;-67
2021/07/19 07:33:43;;;;;;;10.40;4.47;;;;;;;17.77;52.19;102018.63;10254181;28;20045;-69
2021/07/19 07:38:40;;;;;;;8.55;4.10;;;;;;;17.83;52.31;102023.66;10237872;28;20042;-71
2021/07/19 07:43:36;;;;;;;7.70;3.83;;;;;;;17.84;51.08;102030.81;10231485;28;20077;-69
2021/07/19 07:48:32;;;;;;;9.45;3.58;;;;;;;17.81;51.81;102020.44;10233856;28;20493;-68
2021/07/19 07:53:29;;;;;;;7.07;3.50;;;;;;;17.84;50.95;102030.81;10251690;28;20069;-67
2021/07/19 07:58:27;;;;;;;5.90;2.97;;;;;;;17.80;50.40;102023.50;10234935;28;20136;-69
2021/07/19 08:03:23;;;;;;;8.77;3.05;;;;;;;17.65;50.08;102022.13;10223448;28;20087;-69
2021/07/19 08:08:20;;;;;;;10.20;2.97;;;;;;;17.72;49.38;102025.16;10244008;28;20046;-69
2021/07/19 08:13:16;;;;;;;8.25;2.85;;;;;;;17.81;48.64;102017.66;10260008;28;20087;-67
2021/07/19 08:18:15;;;;;;;9.65;3.53;;;;;;;17.85;49.37;102021.38;10240526;28;20041;-70
2021/07/19 08:23:11;;;;;;;5.18;2.38;;;;;;;17.85;48.84;102026.91;10233423;28;20042;-68
2021/07/19 08:28:08;;;;;;;8.05;3.33;;;;;;;17.88;49.16;102020.69;10236910;28;20577;-68
2021/07/19 08:33:05;;;;;;;6.95;2.90;;;;;;;17.92;49.90;102020.06;10256780;28;20140;-67
2021/07/19 08:38:02;;;;;;;7.82;3.55;;;;;;;17.94;49.40;102018.56;10232886;28;20049;-69
2021/07/19 08:43:00;;;;;;;7.15;3.30;;;;;;;18.03;49.59;102015.72;10238227;28;20556;-67
2021/07/19 08:48:00;;;;;;;7.13;2.40;;;;;;;18.08;49.57;102012.75;10228227;28;20048;-67
2021/07/19 08:52:56;;;;;;;8.07;4.22;;;;;;;18.41;49.61;102009.22;10253741;28;20099;-69
2021/07/19 08:57:53;;;;;;;5.45;2.75;;;;;;;18.46;48.41;102009.00;10235452;28;20498;-68
2021/07/19 09:02:49;;;;;;;6.05;2.05;;;;;;;18.25;48.10;101995.19;10234587;28;20045;-68
2021/07/19 09:07:46;;;;;;;6.07;2.30;;;;;;;18.49;47.98;101991.69;10237148;28;20129;-68
2021/07/19 09:12:45;;;;;;;6.82;2.22;;;;;;;18.51;47.36;101992.16;10230729;28;20114;-70
2021/07/19 09:17:42;;;;;;;7.13;2.70;;;;;;;18.50;47.06;101996.09;10218342;28;20095;-68
2021/07/19 09:22:39;;;;;;;9.88;2.25;;;;;;;18.60;47.44;101995.66;10240592;28;20041;-67
2021/07/19 09:27:39;;;;;;;7.10;2.70;;;;;;;18.49;45.79;101988.94;10230365;28;20075;-68
2021/07/19 09:32:51;;;;;;;4.70;1.60;;;;;;;18.76;45.20;101981.97;10252086;28;20069;-68
2021/07/19 09:37:48;;;;;;;5.70;1.85;;;;;;;18.81;47.60;101979.00;10232056;28;20058;-69
2021/07/19 09:42:44;;;;;;;8.05;2.08;;;;;;;18.81;46.48;101981.78;10227789;28;20045;-70
2021/07/19 09:47:41;;;;;;;6.97;2.85;;;;;;;18.83;46.01;101981.44;10236993;28;20083;-69
2021/07/19 09:52:37;;;;;;;5.97;2.55;;;;;;;18.91;46.71;101972.22;10261406;28;20095;-68
2021/07/19 09:57:34;;;;;;;5.18;1.98;;;;;;;18.78;47.04;101976.13;10241391;28;20049;-67
2021/07/19 10:02:35;;;;;;;7.28;2.42;;;;;;;18.61;46.69;101980.69;10234052;28;20577;-70
2021/07/19 10:07:32;;;;;;;8.98;2.60;;;;;;;18.54;46.94;101974.88;10235487;28;20052;-72
2021/07/19 10:12:29;;;;;;;6.70;1.92;;;;;;;18.65;48.47;101970.50;10260962;28;20079;-69
2021/07/19 10:17:25;;;;;;;6.13;2.17;;;;;;;18.60;48.04;101967.16;10247493;28;20055;-71
2021/07/19 10:22:23;;;;;;;10.23;3.75;;;;;;;18.64;47.88;101957.81;10234655;28;20462;-67
2021/07/19 10:27:27;;;;;;;7.15;1.90;;;;;;;18.81;47.16;101961.59;10240435;28;20137;-69
2021/07/19 10:32:24;;;;;;;6.85;2.13;;;;;;;18.97;47.16;101959.75;10236002;28;22070;-69
2021/07/19 10:37:25;;;;;;;6.85;1.40;;;;;;;19.07;47.77;101964.84;10238533;28;20099;-68
2021/07/19 10:42:33;;;;;;;7.32;2.05;;;;;;;19.05;46.51;101966.34;10238280;28;20050;-68
2021/07/19 10:47:30;;;;;;;7.00;1.88;;;;;;;18.84;46.51;101960.88;10224425;28;20635;-67
2021/07/19 10:52:37;;;;;;;3.85;1.50;;;;;;;19.03;46.65;101958.38;10237718;28;20103;-71
2021/07/19 10:57:46;;;;;;;6.85;2.80;;;;;;;19.30;45.60;101958.84;10228360;28;20049;-67
2021/07/19 11:02:43;;;;;;;6.95;2.20;;;;;;;19.76;45.63;101951.16;10236517;28;20481;-68
2021/07/19 11:07:45;;;;;;;6.35;1.67;;;;;;;19.84;44.90;101960.50;10249016;28;20269;-67
2021/07/19 11:12:49;;;;;;;4.70;2.00;;;;;;;19.45;46.02;101940.69;10241841;28;20052;-68
2021/07/19 11:17:45;;;;;;;7.38;2.20;;;;;;;19.32;48.42;101951.78;10243408;28;20092;-71
2021/07/19 11:22:44;;;;;;;10.65;2.00;;;;;;;19.32;48.48;101948.19;10236355;28;20041;-67
2021/07/19 11:27:42;;;;;;;5.03;2.00;;;;;;;19.21;49.07;101947.84;10239123;28;20042;-68
2021/07/19 11:32:39;;;;;;;7.10;2.33;;;;;;;18.69;51.08;101954.84;10245574;28;20084;-67
2021/07/19 11:37:44;;;;;;;9.20;2.70;;;;;;;18.75;51.87;101963.72;10244573;28;20450;-68
2021/07/19 11:42:44;;;;;;;6.60;2.85;;;;;;;18.64;53.09;101960.59;10233434;28;20049;-67
2021/07/19 11:47:50;;;;;;;8.93;2.67;;;;;;;18.64;52.47;101963.38;10225908;28;20084;-68
2021/07/19 11:52:48;;;;;;;7.43;2.67;;;;;;;18.83;52.14;101964.81;10246255;28;20077;-69
2021/07/19 11:57:55;;;;;;;10.02;2.97;;;;;;;18.87;51.72;101960.22;10242471;28;20132;-68
2021/07/19 12:03:03;;;;;;;6.85;2.70;;;;;;;19.02;50.80;101959.53;10229234;28;20131;-67
2021/07/19 12:08:03;;;;;;;7.13;2.50;;;;;;;18.89;50.78;101946.78;10231957;28;20132;-67
2021/07/19 12:13:12;;;;;;;7.57;2.42;;;;;;;19.13;50.28;101943.25;10245916;28;20055;-70
2021/07/19 12:18:08;;;;;;;6.15;1.95;;;;;;;18.86;49.65;101939.19;10243811;28;20077;-68
2021/07/19 12:23:05;;;;;;;6.30;2.25;;;;;;;19.27;49.10;101929.03;10236471;28;20046;-68
2021/07/19 12:28:02;;;;;;;7.75;2.25;;;;;;;19.43;47.68;101932.72;10243478;28;20118;-68
2021/07/19 12:33:00;;;;;;;5.75;2.45;;;;;;;19.70;47.17;101916.50;10251437;28;20132;-68
2021/07/19 12:37:58;;;;;;;7.72;2.60;;;;;;;19.92;46.71;101927.06;10244161;28;20049;-68
2021/07/19 12:42:58;;;;;;;6.60;2.10;;;;;;;19.83;46.08;101929.19;10231934;28;20552;-68
2021/07/19 12:47:57;;;;;;;6.05;1.98;;;;;;;19.93;45.92;101917.56;10233823;28;20049;-68
2021/07/19 12:52:54;;;;;;;6.28;1.92;;;;;;;20.31;46.34;101930.13;10250251;28;20044;-69
2021/07/19 12:57:53;;;;;;;5.80;2.20;;;;;;;19.95;47.04;101928.31;10244229;28;20077;-68
2021/07/19 13:03:01;;;;;;;8.15;1.90;;;;;;;19.66;48.46;101929.44;10228512;28;20046;-68
2021/07/19 13:07:58;;;;;;;8.35;2.83;;;;;;;19.49;49.16;101920.19;10237958;28;20068;-68
2021/07/19 13:12:59;;;;;;;5.50;2.45;;;;;;;19.42;49.69;101925.53;10245611;28;20085;-69
2021/07/19 13:18:08;;;;;;;8.77;3.85;;;;;;;19.50;50.53;101924.59;10253694;28;20045;-68
2021/07/19 13:23:12;;;;;;;6.78;2.22;;;;;;;19.75;49.58;101916.28;10221263;28;20072;-70
2021/07/19 13:28:08;;;;;;;7.13;2.65;;;;;;;19.78;47.45;101920.31;10240172;28;20045;-68
2021/07/19 13:33:07;;;;;;;7.43;2.53;;;;;;;19.74;47.06;101920.19;10240364;28;20053;-67
2021/07/19 13:38:04;;;;;;;7.45;2.30;;;;;;;19.71;47.70;101920.91;10241347;28;20498;-68
2021/07/19 13:43:05;;;;;;;8.93;3.60;;;;;;;19.63;48.58;101924.56;10230536;28;20154;-67
2021/07/19 13:48:02;;;;;;;11.05;2.83;;;;;;;19.34;48.62;101929.25;10233042;28;20470;-67
2021/07/19 13:52:58;;;;;;;6.25;2.30;;;;;;;19.34;49.19;101934.81;10247985;28;20453;-68
2021/07/19 13:57:56;;;;;;;9.00;2.83;;;;;;;19.25;48.82;101932.16;10236970;28;20110;-67
2021/07/19 14:02:52;;;;;;;6.28;2.40;;;;;;;19.10;49.15;101928.13;10231800;28;20045;-68
2021/07/19 14:07:49;;;;;;;7.82;2.60;;;;;;;19.18;49.74;101914.50;10235779;28;20040;-68
2021/07/19 14:12:45;;;;;;;10.05;2.90;;;;;;;19.20;51.21;101917.72;10240594;28;20445;-70
2021/07/19 14:17:42;;;;;;;11.85;3.60;;;;;;;19.33;51.67;101916.53;10233085;28;20076;-68
2021/07/19 14:22:38;;;;;;;10.98;3.65;;;;;;;19.10;51.51;101919.81;10225834;28;20069;-67
2021/07/19 14:27:35;;;;;;;5.22;2.22;;;;;;;18.98;51.31;101917.00;10235787;28;20073;-67
2021/07/19 14:32:31;;;;;;;5.93;2.65;;;;;;;18.92;52.45;101912.88;10240121;28;20437;-69
2021/07/19 14:37:28;;;;;;;5.47;2.42;;;;;;;18.78;53.07;101920.72;10240593;28;20571;-70
2021/07/19 14:42:24;;;;;;;5.68;2.50;;;;;;;18.77;53.02;101916.31;10237145;28;20053;-68
2021/07/19 14:47:20;;;;;;;7.20;2.22;;;;;;;18.84;51.74;101920.13;10241617;28;20096;-68
2021/07/19 14:52:19;;;;;;;6.20;2.38;;;;;;;18.89;51.31;101908.84;10249800;28;20067;-67
2021/07/19 14:57:16;;;;;;;6.30;1.90;;;;;;;19.02;50.77;101911.59;10233527;28;20073;-68
2021/07/19 15:02:13;;;;;;;7.38;3.30;;;;;;;19.31;50.58;101907.78;10224262;28;20053;-69
2021/07/19 15:07:10;;;;;;;4.97;1.90;;;;;;;19.31;50.95;101908.59;10251605;28;20064;-68
2021/07/19 15:12:06;;;;;;;6.40;2.10;;;;;;;19.20;50.64;101896.34;10239504;28;20041;-69
2021/07/19 15:17:04;;;;;;;6.05;2.00;;;;;;;19.00;51.41;101897.28;10253934;28;20135;-68
2021/07/19 15:22:02;;;;;;;7.05;2.22;;;;;;;19.06;51.32;101896.69;10241998;28;20045;-67
2021/07/19 15:26:59;;;;;;;8.98;3.08;;;;;;;19.12;51.45;101900.88;10244429;28;20064;-68
2021/07/19 15:31:55;;;;;;;6.65;2.58;;;;;;;19.19;51.04;101888.38;10264969;28;20045;-67
2021/07/19 15:36:52;;;;;;;5.93;1.52;;;;;;;19.30;50.96;101895.06;10247032;28;20084;-70
2021/07/19 15:41:49;;;;;;;7.43;1.95;;;;;;;19.46;49.99;101887.63;10237923;28;20041;-70
2021/07/19 15:46:45;;;;;;;6.35;2.15;;;;;;;19.56;49.44;101880.78;10237655;28;20072;-69
2021/07/19 15:51:41;;;;;;;9.88;2.65;;;;;;;19.53;49.78;101876.75;10245454;28;20136;-68
2021/07/19 15:56:38;;;;;;;4.45;2.17;;;;;;;19.62;50.59;101878.59;10249602;28;20103;-68
2021/07/19 16:01:34;;;;;;;5.07;2.35;;;;;;;19.40;49.93;101877.97;10240237;28;20054;-69
2021/07/19 16:06:31;;;;;;;8.00;1.98;;;;;;;19.58;50.41;101872.13;10234147;28;20045;-69
2021/07/19 16:11:27;;;;;;;7.22;2.00;;;;;;;19.53;50.32;101876.75;10242851;28;20053;-68
2021/07/19 16:16:24;;;;;;;6.03;2.17;;;;;;;19.43;50.62;101877.25;10247759;28;20407;-69
2021/07/19 16:21:20;;;;;;;6.70;1.77;;;;;;;19.23;51.60;101876.22;10235703;28;20503;-68
2021/07/19 16:26:18;;;;;;;7.47;3.17;;;;;;;19.16;50.69;101877.97;10230348;28;20052;-68
2021/07/19 16:31:14;;;;;;;8.18;2.53;;;;;;;19.19;49.21;101880.03;10248128;28;20495;-68
2021/07/19 16:36:11;;;;;;;6.85;2.97;;;;;;;19.07;49.13;101869.78;10247385;28;20100;-68
2021/07/19 16:41:08;;;;;;;9.00;3.28;;;;;;;19.21;48.47;101886.06;10244466;28;20045;-67
2021/07/19 16:51:01;;;;;;;8.02;1.95;;;;;;;19.53;48.78;101857.31;10254471;28;20076;-68
2021/07/19 16:55:58;;;;;;;6.10;2.05;;;;;;;19.26;50.25;101860.84;10242621;28;20067;-68
2021/07/19 17:00:54;;;;;;;6.78;2.22;;;;;;;19.11;51.14;101860.44;10238736;28;20046;-71
2021/07/19 17:05:51;;;;;;;6.75;2.38;;;;;;;19.21;51.84;101864.69;10230536;28;20056;-69
2021/07/19 17:10:47;;;;;;;6.07;2.15;;;;;;;19.14;52.01;101859.72;10243200;28;20049;-69
2021/07/19 17:15:44;;;;;;;5.75;2.00;;;;;;;18.96;52.52;101857.53;10232068;28;20115;-70
2021/07/19 17:20:40;;;;;;;6.55;2.65;;;;;;;18.90;52.87;101854.22;10232857;28;20071;-68
2021/07/19 17:25:37;;;;;;;7.00;2.03;;;;;;;18.95;52.67;101856.75;10228472;28;20107;-69
2021/07/19 17:30:37;;;;;;;7.30;3.00;;;;;;;19.17;52.06;101857.41;10253446;28;20100;-68
2021/07/19 17:35:36;;;;;;;7.15;1.85;;;;;;;19.27;51.03;101852.19;10250400;28;20076;-72
2021/07/19 17:40:34;;;;;;;8.18;1.70;;;;;;;19.01;49.36;101844.28;10234648;28;20046;-68
2021/07/19 17:45:32;;;;;;;4.82;1.80;;;;;;;18.86;50.11;101853.28;10230673;28;20045;-68
2021/07/19 17:50:29;;;;;;;7.10;1.33;;;;;;;18.66;50.68;101839.19;10225594;28;20041;-68
2021/07/19 17:55:27;;;;;;;8.40;2.03;;;;;;;18.43;51.81;101830.50;10246588;28;20744;-68
2021/07/19 18:00:24;;;;;;;9.23;2.17;;;;;;;18.36;52.72;101829.47;10235290;28;20046;-69
2021/07/19 18:05:26;;;;;;;4.43;1.63;;;;;;;18.23;53.56;101832.19;10243030;28;20073;-71
2021/07/19 18:10:24;;;;;;;7.20;2.20;;;;;;;18.29;53.95;101836.38;10244636;28;20045;-69
2021/07/19 18:15:21;;;;;;;5.70;2.05;;;;;;;18.18;54.80;101840.72;10250643;28;20073;-69
2021/07/19 18:20:22;;;;;;;7.07;2.47;;;;;;;18.06;55.75;101843.47;10232474;28;20080;-69
2021/07/19 18:35:29;;;;;;;7.13;2.40;;;;;;;18.08;57.21;101835.66;10246335;28;20127;-69
2021/07/19 18:40:26;;;;;;;8.45;2.58;;;;;;;18.03;57.75;101833.06;10244751;28;20565;-69
2021/07/19 18:45:23;;;;;;;6.00;2.25;;;;;;;18.07;57.95;101840.34;10235038;28;20054;-69
2021/07/19 18:50:20;;;;;;;8.52;2.75;;;;;;;17.82;57.85;101833.94;10247811;28;20482;-68
2021/07/19 18:55:18;;;;;;;6.82;2.03;;;;;;;17.67;57.79;101842.84;10251213;28;20471;-69
2021/07/19 19:00:18;;;;;;;10.18;3.42;;;;;;;17.65;57.73;101834.06;10253300;28;20540;-71
2021/07/19 19:05:18;;;;;;;8.98;3.00;;;;;;;17.66;57.78;101841.19;10250117;28;20121;-68
2021/07/19 19:10:15;;;;;;;7.68;2.50;;;;;;;17.53;57.96;101842.31;10244927;28;20449;-69
2021/07/19 19:15:20;;;;;;;8.40;2.40;;;;;;;17.43;58.58;101838.81;10243336;28;20391;-71
2021/07/19 19:20:18;;;;;;;10.63;3.28;;;;;;;17.40;58.53;101850.50;10243261;28;20060;-70
2021/07/19 19:25:15;;;;;;;9.25;3.90;;;;;;;17.33;58.97;101850.25;10240812;28;20091;-68
2021/07/19 19:30:20;;;;;;;13.45;4.18;;;;;;;17.28;59.38;101853.22;10245307;28;20482;-70
2021/07/19 19:35:17;;;;;;;9.35;2.72;;;;;;;17.27;59.17;101856.31;10252362;28;20080;-68
2021/07/19 19:40:17;;;;;;;6.72;2.15;;;;;;;17.06;60.35;101861.81;10239835;28;20081;-70
2021/07/19 19:45:14;;;;;;;9.70;2.42;;;;;;;17.07;60.44;101864.25;10237068;28;20057;-68
2021/07/19 19:50:26;;;;;;;6.68;2.25;;;;;;;17.02;60.74;101868.00;10252315;28;20053;-68
2021/07/19 19:55:23;;;;;;;7.78;2.92;;;;;;;17.06;60.80;101868.16;10246946;28;20129;-69
2021/07/19 20:00:19;;;;;;;10.10;2.80;;;;;;;17.02;61.08;101876.28;10242068;28;20062;-68
2021/07/19 20:05:16;;;;;;;9.00;2.92;;;;;;;16.92;61.70;101870.34;10239933;28;20186;-68
2021/07/19 20:10:13;;;;;;;10.45;2.33;;;;;;;16.88;61.96;101872.97;10229276;28;20057;-69
2021/07/19 20:15:12;;;;;;;7.10;2.35;;;;;;;16.79;62.48;101874.97;10246978;28;20080;-70
2021/07/19 20:20:10;;;;;;;12.23;3.47;;;;;;;16.71;62.93;101878.53;10238208;28;20519;-69
2021/07/19 20:25:08;;;;;;;9.25;2.80;;;;;;;16.70;63.06;101877.72;10228156;28;20530;-71
2021/07/19 20:30:08;;;;;;;10.20;3.25;;;;;;;16.62;63.60;101882.16;10249129;28;20102;-68
2021/07/19 20:35:07;;;;;;;5.65;2.35;;;;;;;16.53;63.90;101883.31;10248137;28;20080;-68
2021/07/19 20:40:06;;;;;;;9.43;2.55;;;;;;;16.52;64.16;101876.97;10253322;28;20107;-67
2021/07/19 20:45:07;;;;;;;6.63;2.75;;;;;;;16.49;64.36;101877.63;10235022;28;20057;-68
2021/07/19 20:50:07;;;;;;;11.68;3.78;;;;;;;16.37;64.91;101869.25;10226637;28;20041;-68
2021/07/19 20:55:05;;;;;;;11.60;3.35;;;;;;;16.35;65.33;101880.59;10233149;28;20083;-69
2021/07/19 21:00:04;;;;;;;14.60;3.38;;;;;;;16.24;65.75;101876.56;10237125;28;20049;-67
2021/07/19 21:05:01;;;;;;;8.13;3.42;;;;;;;16.31;65.24;101879.63;10232226;28;20487;-68
2021/07/19 21:09:58;;;;;;;11.55;3.70;;;;;;;16.28;65.27;101883.06;10251498;28;20072;-68
2021/07/19 21:14:54;;;;;;;9.70;3.20;;;;;;;16.30;65.39;101885.50;10250314;28;20067;-67
2021/07/19 21:19:51;;;;;;;8.25;3.47;;;;;;;16.27;64.66;101880.63;10242130;28;20592;-67
2021/07/19 21:24:48;;;;;;;12.50;5.80;;;;;;;16.27;64.77;101880.63;10232242;28;20068;-69
2021/07/19 21:29:44;;;;;;;8.45;3.40;;;;;;;16.18;64.74;101878.69;10233870;28;20045;-68
2021/07/19 21:34:41;;;;;;;13.70;3.85;;;;;;;16.14;65.01;101877.72;10242300;28;20041;-68
2021/07/19 21:39:38;;;;;;;9.48;4.35;;;;;;;16.08;65.41;101884.56;10231956;28;20065;-68
2021/07/19 21:44:34;;;;;;;10.30;3.97;;;;;;;16.07;65.52;101888.44;10229722;28;20069;-69
2021/07/19 21:49:31;;;;;;;10.98;3.30;;;;;;;16.03;65.67;101879.19;10225903;28;20041;-67
2021/07/19 21:54:27;;;;;;;7.82;2.65;;;;;;;16.07;65.62;101882.13;10226531;28;20141;-69
2021/07/19 21:59:24;;;;;;;9.52;3.90;;;;;;;15.98;65.73;101887.66;10249910;28;20139;-67
2021/07/19 22:04:21;;;;;;;9.48;2.60;;;;;;;16.00;65.59;101882.63;10227624;28;20115;-67
2021/07/19 22:09:19;;;;;;;8.18;3.15;;;;;;;15.85;66.11;101888.63;10235712;28;20045;-67
2021/07/19 22:14:17;;;;;;;10.07;3.00;;;;;;;15.80;66.37;101883.28;10237418;28;20045;-67
2021/07/19 22:19:22;;;;;;;10.90;3.58;;;;;;;15.73;66.53;101884.59;10244894;28;20072;-69
2021/07/19 22:24:18;;;;;;;7.95;2.92;;;;;;;15.63;66.83;101889.59;10228069;28;20080;-67
2021/07/19 22:29:17;;;;;;;5.88;2.60;;;;;;;15.65;66.82;101885.38;10241487;28;20095;-68
2021/07/19 22:34:13;;;;;;;6.25;3.15;;;;;;;15.59;66.41;101889.41;10247056;28;20072;-68
2021/07/19 22:39:10;;;;;;;8.77;3.00;;;;;;;15.57;66.89;101897.19;10238607;28;20049;-67
2021/07/19 22:44:07;;;;;;;12.20;3.63;;;;;;;15.55;67.08;101893.97;10232838;28;20064;-68
2021/07/19 22:49:03;;;;;;;10.20;2.70;;;;;;;15.44;67.28;101887.13;10230689;28;20455;-67
2021/07/19 22:54:00;;;;;;;8.05;3.20;;;;;;;15.41;67.71;101888.59;10239119;28;20111;-67
2021/07/19 22:58:58;;;;;;;6.82;2.90;;;;;;;15.32;68.30;101891.34;10237866;28;20038;-68